메인 페이지
METAR-TAF:

METAR-TAF

공항 :

상파울루 콩고냐스 공항

상파울루, 상파울루, 브라질

위도: 23-37S, 경도: 046-39W, 고도: 803m

현재 날씨관측

예보는 1 시간 16분 전, 19:00시(UTC)에 발표되었습니다.
북북서13kt
온도 23°C
습도 65%
기압 1014 hPa
시정 10km 이상
고도 3000ft 상공 구름 많음

METAR: SBSP 181900Z 34013KT 9999 BKN030 23/16 Q1014

시각: 17:16 (20:16 UTC)

예보

예보는 3 시간 56분 전, 16:20시(UTC)에 발표되었습니다.
예보 대상 시간: 18일 18시부터 19일 18시까지 (UTC)
북서10kt
시정 10km 이상
고도 3000ft 상공 구름 많음
확률 30%
18일 19시부터 18일 21시까지 (UTC)
시정: 6000m
고도 2000ft 상공 구름 많음
전환 중
18일 21시부터 18일 23시까지 (UTC)
북북서5kt
시정 10km 이상
1500m 미만 상공 구름 및 적란운 없음
확률 30%
19일 04시부터 19일 10시까지 (UTC)
시정: 4000m
고도 500ft 상공 구름 많음
박무
전환 중
19일 14시부터 19일 16시까지 (UTC)
북서10kt
고도 3500ft 상공 구름 보통

TAF: SBSP 181620Z 1818/1918 32010KT 9999 BKN030 TN17/1909Z TX28/1917Z PROB30 1819/1821 6000 RA BKN020 BECMG 1821/1823 34005KT CAVOK PROB30 1904/1910 4000 BR BKN005 BECMG 1914/1916 31010KT SCT035 RMK PGG

4,000개 이상의 공항 관측 자료 및 예보 (METAR 및 TAF 보고).

지도상에서 검색 가능한 기상관측소가 노란 점과 빨간 점으로 표시되어 있습니다.

기상관측소 명을 보려면 표시 위로 마우스를 이동하세요.

날씨 관측과 예보를 보려면 클릭하세요.

지도 변경 : 확대하려면 엑스 표시가 있는 녹색 버튼, 축소하려면 빼기 표시가 있는 녹색 버튼, 다음 페이지의 지도를 보려면 녹색 화살표를 클릭하세요.


METAR-TAF: